sensor_id;sensor_type;location;lat;lon;timestamp;P1;durP1;ratioP1;P2;durP2;ratioP2
29330;SDS011;16331;52.528;13.342;2022-12-24T00:01:25;20.40;;;7.40;;
29330;SDS011;16331;52.528;13.342;2022-12-24T00:03:51;15.93;;;6.50;;
29330;SDS011;16331;52.528;13.342;2022-12-24T00:06:18;19.65;;;8.23;;
29330;SDS011;16331;52.528;13.342;2022-12-24T00:08:46;14.95;;;5.55;;
29330;SDS011;16331;52.528;13.342;2022-12-24T00:11:12;19.35;;;6.57;;
29330;SDS011;16331;52.528;13.342;2022-12-24T00:13:38;20.25;;;6.90;;
29330;SDS011;16331;52.528;13.342;2022-12-24T00:16:04;21.83;;;6.72;;
29330;SDS011;16331;52.528;13.342;2022-12-24T00:18:31;19.52;;;6.80;;
29330;SDS011;16331;52.528;13.342;2022-12-24T00:20:57;20.17;;;7.10;;
29330;SDS011;16331;52.528;13.342;2022-12-24T00:23:23;18.33;;;6.07;;
29330;SDS011;16331;52.528;13.342;2022-12-24T00:25:50;15.43;;;6.15;;
29330;SDS011;16331;52.528;13.342;2022-12-24T00:28:16;16.13;;;6.40;;
29330;SDS011;16331;52.528;13.342;2022-12-24T00:30:42;21.55;;;6.97;;
29330;SDS011;16331;52.528;13.342;2022-12-24T00:33:08;16.33;;;6.57;;
29330;SDS011;16331;52.528;13.342;2022-12-24T00:35:36;18.05;;;6.15;;
29330;SDS011;16331;52.528;13.342;2022-12-24T00:38:03;14.60;;;5.88;;
29330;SDS011;16331;52.528;13.342;2022-12-24T00:40:30;15.13;;;6.15;;
29330;SDS011;16331;52.528;13.342;2022-12-24T00:42:56;21.15;;;6.38;;
29330;SDS011;16331;52.528;13.342;2022-12-24T00:45:22;14.02;;;5.38;;
29330;SDS011;16331;52.528;13.342;2022-12-24T00:47:49;15.10;;;5.45;;
29330;SDS011;16331;52.528;13.342;2022-12-24T00:50:15;17.63;;;5.82;;
29330;SDS011;16331;52.528;13.342;2022-12-24T00:52:41;20.17;;;5.75;;
29330;SDS011;16331;52.528;13.342;2022-12-24T00:55:07;17.50;;;5.35;;
29330;SDS011;16331;52.528;13.342;2022-12-24T00:57:33;15.30;;;5.65;;
29330;SDS011;16331;52.528;13.342;2022-12-24T00:59:59;16.98;;;6.60;;
29330;SDS011;16331;52.528;13.342;2022-12-24T01:02:25;15.80;;;4.88;;
29330;SDS011;16331;52.528;13.342;2022-12-24T01:04:51;22.40;;;4.90;;
29330;SDS011;16331;52.528;13.342;2022-12-24T01:07:36;13.95;;;5.32;;
29330;SDS011;16331;52.528;13.342;2022-12-24T01:10:04;15.18;;;5.68;;
29330;SDS011;16331;52.528;13.342;2022-12-24T01:12:32;15.23;;;5.20;;
29330;SDS011;16331;52.528;13.342;2022-12-24T01:14:59;16.45;;;6.85;;
29330;SDS011;16331;52.528;13.342;2022-12-24T01:17:25;15.27;;;6.38;;
29330;SDS011;16331;52.528;13.342;2022-12-24T01:19:52;14.13;;;6.05;;
29330;SDS011;16331;52.528;13.342;2022-12-24T01:22:18;12.85;;;5.65;;
29330;SDS011;16331;52.528;13.342;2022-12-24T01:24:44;20.70;;;6.53;;
29330;SDS011;16331;52.528;13.342;2022-12-24T01:27:10;22.33;;;6.65;;
29330;SDS011;16331;52.528;13.342;2022-12-24T01:29:36;21.27;;;6.35;;
29330;SDS011;16331;52.528;13.342;2022-12-24T01:32:02;17.50;;;5.78;;
29330;SDS011;16331;52.528;13.342;2022-12-24T01:34:28;21.80;;;6.72;;
29330;SDS011;16331;52.528;13.342;2022-12-24T01:36:55;15.05;;;6.25;;
29330;SDS011;16331;52.528;13.342;2022-12-24T01:39:21;18.42;;;7.15;;
29330;SDS011;16331;52.528;13.342;2022-12-24T01:41:47;20.48;;;6.82;;
29330;SDS011;16331;52.528;13.342;2022-12-24T01:44:33;18.42;;;7.15;;
29330;SDS011;16331;52.528;13.342;2022-12-24T01:47:14;18.33;;;7.15;;
29330;SDS011;16331;52.528;13.342;2022-12-24T01:49:48;23.33;;;8.02;;
29330;SDS011;16331;52.528;13.342;2022-12-24T01:52:28;22.35;;;8.18;;
29330;SDS011;16331;52.528;13.342;2022-12-24T01:54:57;21.08;;;7.85;;
29330;SDS011;16331;52.528;13.342;2022-12-24T01:57:31;20.27;;;7.40;;
29330;SDS011;16331;52.528;13.342;2022-12-24T02:00:03;28.57;;;7.80;;
29330;SDS011;16331;52.528;13.342;2022-12-24T02:02:32;21.48;;;8.02;;
29330;SDS011;16331;52.528;13.342;2022-12-24T02:05:09;26.20;;;8.68;;
29330;SDS011;16331;52.528;13.342;2022-12-24T02:07:38;20.90;;;8.50;;
29330;SDS011;16331;52.528;13.342;2022-12-24T02:10:07;20.75;;;7.47;;
29330;SDS011;16331;52.528;13.342;2022-12-24T02:12:37;21.98;;;7.53;;
29330;SDS011;16331;52.528;13.342;2022-12-24T02:15:05;23.80;;;7.90;;
29330;SDS011;16331;52.528;13.342;2022-12-24T02:17:38;22.42;;;8.23;;
29330;SDS011;16331;52.528;13.342;2022-12-24T02:31:19;20.00;;;8.18;;
29330;SDS011;16331;52.528;13.342;2022-12-24T02:34:03;17.70;;;7.75;;
29330;SDS011;16331;52.528;13.342;2022-12-24T02:36:56;17.67;;;7.78;;
29330;SDS011;16331;52.528;13.342;2022-12-24T02:39:40;22.15;;;7.28;;
29330;SDS011;16331;52.528;13.342;2022-12-24T02:42:14;26.95;;;8.45;;
29330;SDS011;16331;52.528;13.342;2022-12-24T02:44:50;27.70;;;8.70;;
29330;SDS011;16331;52.528;13.342;2022-12-24T02:47:29;18.58;;;7.07;;
29330;SDS011;16331;52.528;13.342;2022-12-24T02:49:58;19.98;;;7.68;;
29330;SDS011;16331;52.528;13.342;2022-12-24T02:52:33;25.95;;;8.15;;
29330;SDS011;16331;52.528;13.342;2022-12-24T02:56:08;20.92;;;7.88;;
29330;SDS011;16331;52.528;13.342;2022-12-24T03:00:56;26.92;;;8.27;;
29330;SDS011;16331;52.528;13.342;2022-12-24T03:03:46;19.35;;;7.82;;
29330;SDS011;16331;52.528;13.342;2022-12-24T03:06:59;24.60;;;9.20;;
29330;SDS011;16331;52.528;13.342;2022-12-24T03:09:33;29.77;;;8.40;;
29330;SDS011;16331;52.528;13.342;2022-12-24T03:12:11;21.80;;;7.43;;
29330;SDS011;16331;52.528;13.342;2022-12-24T03:14:41;29.15;;;9.48;;
29330;SDS011;16331;52.528;13.342;2022-12-24T03:17:10;24.60;;;8.27;;
29330;SDS011;16331;52.528;13.342;2022-12-24T03:19:37;24.23;;;7.90;;
29330;SDS011;16331;52.528;13.342;2022-12-24T03:22:06;22.88;;;7.75;;
29330;SDS011;16331;52.528;13.342;2022-12-24T03:24:34;20.52;;;8.10;;
29330;SDS011;16331;52.528;13.342;2022-12-24T03:27:00;19.08;;;7.40;;
29330;SDS011;16331;52.528;13.342;2022-12-24T03:29:28;29.35;;;9.35;;
29330;SDS011;16331;52.528;13.342;2022-12-24T03:31:58;25.65;;;9.00;;
29330;SDS011;16331;52.528;13.342;2022-12-24T03:34:25;22.67;;;8.20;;
29330;SDS011;16331;52.528;13.342;2022-12-24T03:36:52;21.65;;;8.25;;
29330;SDS011;16331;52.528;13.342;2022-12-24T03:39:19;22.27;;;7.65;;
29330;SDS011;16331;52.528;13.342;2022-12-24T03:41:46;26.98;;;9.13;;
29330;SDS011;16331;52.528;13.342;2022-12-24T03:44:12;27.92;;;8.70;;
29330;SDS011;16331;52.528;13.342;2022-12-24T03:46:38;26.52;;;9.40;;
29330;SDS011;16331;52.528;13.342;2022-12-24T03:49:04;21.65;;;8.80;;
29330;SDS011;16331;52.528;13.342;2022-12-24T03:51:31;28.73;;;8.85;;
29330;SDS011;16331;52.528;13.342;2022-12-24T03:53:57;26.92;;;8.73;;
29330;SDS011;16331;52.528;13.342;2022-12-24T03:56:23;21.58;;;7.35;;
29330;SDS011;16331;52.528;13.342;2022-12-24T03:58:50;27.00;;;8.82;;
29330;SDS011;16331;52.528;13.342;2022-12-24T04:01:17;26.60;;;8.45;;
29330;SDS011;16331;52.528;13.342;2022-12-24T04:03:43;26.67;;;8.93;;
29330;SDS011;16331;52.528;13.342;2022-12-24T04:06:11;27.15;;;8.88;;
29330;SDS011;16331;52.528;13.342;2022-12-24T04:08:40;22.98;;;7.68;;
29330;SDS011;16331;52.528;13.342;2022-12-24T04:11:07;22.88;;;8.35;;
29330;SDS011;16331;52.528;13.342;2022-12-24T04:13:34;26.63;;;9.48;;
29330;SDS011;16331;52.528;13.342;2022-12-24T04:16:03;26.13;;;8.77;;
29330;SDS011;16331;52.528;13.342;2022-12-24T04:18:33;26.50;;;8.52;;
29330;SDS011;16331;52.528;13.342;2022-12-24T04:21:00;16.48;;;6.72;;
29330;SDS011;16331;52.528;13.342;2022-12-24T04:23:28;24.75;;;7.47;;
29330;SDS011;16331;52.528;13.342;2022-12-24T04:25:58;19.67;;;7.75;;
29330;SDS011;16331;52.528;13.342;2022-12-24T04:28:24;18.23;;;7.32;;
29330;SDS011;16331;52.528;13.342;2022-12-24T04:30:56;21.50;;;7.32;;
29330;SDS011;16331;52.528;13.342;2022-12-24T04:33:36;21.08;;;7.43;;
29330;SDS011;16331;52.528;13.342;2022-12-24T04:36:03;22.75;;;7.50;;
29330;SDS011;16331;52.528;13.342;2022-12-24T04:38:30;22.55;;;8.70;;
29330;SDS011;16331;52.528;13.342;2022-12-24T04:41:00;23.05;;;7.72;;
29330;SDS011;16331;52.528;13.342;2022-12-24T04:43:32;21.50;;;8.02;;
29330;SDS011;16331;52.528;13.342;2022-12-24T04:46:11;21.52;;;8.63;;
29330;SDS011;16331;52.528;13.342;2022-12-24T04:48:40;20.35;;;7.47;;
29330;SDS011;16331;52.528;13.342;2022-12-24T04:51:06;21.23;;;8.27;;
29330;SDS011;16331;52.528;13.342;2022-12-24T04:53:34;23.75;;;8.23;;
29330;SDS011;16331;52.528;13.342;2022-12-24T04:56:00;18.92;;;6.47;;
29330;SDS011;16331;52.528;13.342;2022-12-24T04:58:26;20.83;;;7.32;;
29330;SDS011;16331;52.528;13.342;2022-12-24T05:00:52;30.67;;;7.07;;
29330;SDS011;16331;52.528;13.342;2022-12-24T05:03:19;19.75;;;7.28;;
29330;SDS011;16331;52.528;13.342;2022-12-24T05:05:46;21.13;;;7.38;;
29330;SDS011;16331;52.528;13.342;2022-12-24T05:08:12;15.98;;;6.55;;
29330;SDS011;16331;52.528;13.342;2022-12-24T05:10:39;17.23;;;7.22;;
29330;SDS011;16331;52.528;13.342;2022-12-24T05:13:05;21.60;;;8.10;;
29330;SDS011;16331;52.528;13.342;2022-12-24T05:15:31;18.50;;;7.57;;
29330;SDS011;16331;52.528;13.342;2022-12-24T05:17:57;17.42;;;6.60;;
29330;SDS011;16331;52.528;13.342;2022-12-24T05:20:23;15.73;;;6.28;;
29330;SDS011;16331;52.528;13.342;2022-12-24T05:22:49;22.77;;;7.60;;
29330;SDS011;16331;52.528;13.342;2022-12-24T05:25:37;16.70;;;7.22;;
29330;SDS011;16331;52.528;13.342;2022-12-24T05:28:23;18.70;;;7.82;;
29330;SDS011;16331;52.528;13.342;2022-12-24T05:30:49;18.45;;;7.22;;
29330;SDS011;16331;52.528;13.342;2022-12-24T05:33:15;17.27;;;8.07;;
29330;SDS011;16331;52.528;13.342;2022-12-24T05:35:41;18.83;;;8.10;;
29330;SDS011;16331;52.528;13.342;2022-12-24T05:38:07;24.05;;;6.60;;
29330;SDS011;16331;52.528;13.342;2022-12-24T05:40:33;22.80;;;6.68;;
29330;SDS011;16331;52.528;13.342;2022-12-24T05:42:59;17.45;;;6.85;;
29330;SDS011;16331;52.528;13.342;2022-12-24T05:45:25;19.52;;;7.65;;
29330;SDS011;16331;52.528;13.342;2022-12-24T05:47:52;20.25;;;8.15;;
29330;SDS011;16331;52.528;13.342;2022-12-24T05:50:18;19.17;;;8.25;;
29330;SDS011;16331;52.528;13.342;2022-12-24T05:52:44;23.20;;;8.05;;
29330;SDS011;16331;52.528;13.342;2022-12-24T05:55:10;15.20;;;7.05;;
29330;SDS011;16331;52.528;13.342;2022-12-24T05:57:38;26.00;;;8.57;;
29330;SDS011;16331;52.528;13.342;2022-12-24T06:00:05;25.35;;;7.95;;
29330;SDS011;16331;52.528;13.342;2022-12-24T06:02:31;24.98;;;8.38;;
29330;SDS011;16331;52.528;13.342;2022-12-24T06:04:58;20.00;;;8.52;;
29330;SDS011;16331;52.528;13.342;2022-12-24T06:07:25;17.85;;;7.25;;
29330;SDS011;16331;52.528;13.342;2022-12-24T06:09:51;20.73;;;7.68;;
29330;SDS011;16331;52.528;13.342;2022-12-24T06:12:17;20.60;;;7.65;;
29330;SDS011;16331;52.528;13.342;2022-12-24T06:14:44;17.95;;;7.47;;
29330;SDS011;16331;52.528;13.342;2022-12-24T06:17:10;20.42;;;8.38;;
29330;SDS011;16331;52.528;13.342;2022-12-24T06:19:36;24.30;;;8.90;;
29330;SDS011;16331;52.528;13.342;2022-12-24T06:22:02;21.27;;;9.20;;
29330;SDS011;16331;52.528;13.342;2022-12-24T06:24:28;27.98;;;8.70;;
29330;SDS011;16331;52.528;13.342;2022-12-24T06:26:54;20.20;;;7.88;;
29330;SDS011;16331;52.528;13.342;2022-12-24T06:29:20;30.50;;;9.82;;
29330;SDS011;16331;52.528;13.342;2022-12-24T06:31:46;18.65;;;6.95;;
29330;SDS011;16331;52.528;13.342;2022-12-24T06:34:12;21.40;;;9.23;;
29330;SDS011;16331;52.528;13.342;2022-12-24T06:36:38;20.48;;;8.57;;
29330;SDS011;16331;52.528;13.342;2022-12-24T06:39:04;26.88;;;8.88;;
29330;SDS011;16331;52.528;13.342;2022-12-24T06:41:30;23.85;;;8.45;;
29330;SDS011;16331;52.528;13.342;2022-12-24T06:43:56;20.83;;;8.23;;
29330;SDS011;16331;52.528;13.342;2022-12-24T06:46:22;31.13;;;8.45;;
29330;SDS011;16331;52.528;13.342;2022-12-24T06:48:48;22.80;;;8.43;;
29330;SDS011;16331;52.528;13.342;2022-12-24T06:51:15;15.93;;;6.50;;
29330;SDS011;16331;52.528;13.342;2022-12-24T06:53:43;21.83;;;8.30;;
29330;SDS011;16331;52.528;13.342;2022-12-24T06:56:11;22.90;;;8.52;;
29330;SDS011;16331;52.528;13.342;2022-12-24T06:58:38;19.30;;;8.32;;
29330;SDS011;16331;52.528;13.342;2022-12-24T07:01:05;22.48;;;8.73;;
29330;SDS011;16331;52.528;13.342;2022-12-24T07:03:34;23.33;;;8.88;;
29330;SDS011;16331;52.528;13.342;2022-12-24T07:06:00;19.40;;;7.75;;
29330;SDS011;16331;52.528;13.342;2022-12-24T07:08:26;27.05;;;7.65;;
29330;SDS011;16331;52.528;13.342;2022-12-24T07:10:53;17.77;;;7.20;;
29330;SDS011;16331;52.528;13.342;2022-12-24T07:13:19;25.00;;;8.88;;
29330;SDS011;16331;52.528;13.342;2022-12-24T07:15:45;24.63;;;8.20;;
29330;SDS011;16331;52.528;13.342;2022-12-24T07:18:11;21.13;;;7.63;;
29330;SDS011;16331;52.528;13.342;2022-12-24T07:20:37;19.48;;;7.65;;
29330;SDS011;16331;52.528;13.342;2022-12-24T07:23:06;15.38;;;6.53;;
29330;SDS011;16331;52.528;13.342;2022-12-24T07:25:32;18.48;;;7.38;;
29330;SDS011;16331;52.528;13.342;2022-12-24T07:27:58;22.45;;;8.38;;
29330;SDS011;16331;52.528;13.342;2022-12-24T07:30:24;18.92;;;6.82;;
29330;SDS011;16331;52.528;13.342;2022-12-24T07:32:50;17.13;;;6.53;;
29330;SDS011;16331;52.528;13.342;2022-12-24T07:35:16;21.33;;;7.93;;
29330;SDS011;16331;52.528;13.342;2022-12-24T07:37:42;24.75;;;7.93;;
29330;SDS011;16331;52.528;13.342;2022-12-24T07:40:08;20.75;;;7.28;;
29330;SDS011;16331;52.528;13.342;2022-12-24T07:42:35;18.92;;;7.43;;
29330;SDS011;16331;52.528;13.342;2022-12-24T07:45:01;20.17;;;7.07;;
29330;SDS011;16331;52.528;13.342;2022-12-24T07:47:27;23.55;;;7.80;;
29330;SDS011;16331;52.528;13.342;2022-12-24T07:49:53;24.15;;;8.50;;
29330;SDS011;16331;52.528;13.342;2022-12-24T07:52:20;20.48;;;7.32;;
29330;SDS011;16331;52.528;13.342;2022-12-24T07:54:46;25.08;;;8.25;;
29330;SDS011;16331;52.528;13.342;2022-12-24T07:57:12;22.63;;;7.80;;
29330;SDS011;16331;52.528;13.342;2022-12-24T07:59:39;26.20;;;8.95;;
29330;SDS011;16331;52.528;13.342;2022-12-24T08:02:05;18.42;;;7.53;;
29330;SDS011;16331;52.528;13.342;2022-12-24T08:04:33;19.05;;;7.20;;
29330;SDS011;16331;52.528;13.342;2022-12-24T08:07:00;17.70;;;7.28;;
29330;SDS011;16331;52.528;13.342;2022-12-24T08:09:31;21.30;;;7.10;;
29330;SDS011;16331;52.528;13.342;2022-12-24T08:11:58;23.67;;;7.70;;
29330;SDS011;16331;52.528;13.342;2022-12-24T08:14:26;24.25;;;8.18;;
29330;SDS011;16331;52.528;13.342;2022-12-24T08:16:52;23.38;;;8.30;;
29330;SDS011;16331;52.528;13.342;2022-12-24T08:19:18;17.67;;;7.20;;
29330;SDS011;16331;52.528;13.342;2022-12-24T08:21:44;21.80;;;7.70;;
29330;SDS011;16331;52.528;13.342;2022-12-24T08:24:10;25.33;;;8.48;;
29330;SDS011;16331;52.528;13.342;2022-12-24T08:26:36;22.70;;;7.25;;
29330;SDS011;16331;52.528;13.342;2022-12-24T08:29:03;21.65;;;8.50;;
29330;SDS011;16331;52.528;13.342;2022-12-24T08:31:29;19.20;;;8.35;;
29330;SDS011;16331;52.528;13.342;2022-12-24T08:34:00;24.52;;;9.57;;
29330;SDS011;16331;52.528;13.342;2022-12-24T08:36:30;19.90;;;7.90;;
29330;SDS011;16331;52.528;13.342;2022-12-24T08:38:56;23.30;;;7.53;;
29330;SDS011;16331;52.528;13.342;2022-12-24T08:41:23;18.52;;;7.22;;
29330;SDS011;16331;52.528;13.342;2022-12-24T08:43:49;25.70;;;8.88;;
29330;SDS011;16331;52.528;13.342;2022-12-24T08:46:15;22.85;;;8.07;;
29330;SDS011;16331;52.528;13.342;2022-12-24T08:48:41;19.48;;;7.35;;
29330;SDS011;16331;52.528;13.342;2022-12-24T08:51:08;21.58;;;6.85;;
29330;SDS011;16331;52.528;13.342;2022-12-24T08:53:35;24.48;;;8.43;;
29330;SDS011;16331;52.528;13.342;2022-12-24T08:56:02;24.50;;;7.75;;
29330;SDS011;16331;52.528;13.342;2022-12-24T08:58:30;21.25;;;7.32;;
29330;SDS011;16331;52.528;13.342;2022-12-24T09:00:56;23.73;;;8.05;;
29330;SDS011;16331;52.528;13.342;2022-12-24T09:03:23;16.38;;;7.57;;
29330;SDS011;16331;52.528;13.342;2022-12-24T09:05:49;23.17;;;8.15;;
29330;SDS011;16331;52.528;13.342;2022-12-24T09:08:17;24.58;;;8.20;;
29330;SDS011;16331;52.528;13.342;2022-12-24T09:10:46;20.83;;;7.32;;
29330;SDS011;16331;52.528;13.342;2022-12-24T09:13:12;24.10;;;6.95;;
29330;SDS011;16331;52.528;13.342;2022-12-24T09:15:38;23.42;;;6.80;;
29330;SDS011;16331;52.528;13.342;2022-12-24T09:18:04;21.70;;;7.95;;
29330;SDS011;16331;52.528;13.342;2022-12-24T09:20:30;25.83;;;7.35;;
29330;SDS011;16331;52.528;13.342;2022-12-24T09:22:56;25.35;;;8.57;;
29330;SDS011;16331;52.528;13.342;2022-12-24T09:25:22;21.88;;;7.82;;
29330;SDS011;16331;52.528;13.342;2022-12-24T09:27:48;21.42;;;7.70;;
29330;SDS011;16331;52.528;13.342;2022-12-24T09:30:16;25.50;;;8.90;;
29330;SDS011;16331;52.528;13.342;2022-12-24T09:32:42;20.17;;;7.85;;
29330;SDS011;16331;52.528;13.342;2022-12-24T09:35:08;24.70;;;8.85;;
29330;SDS011;16331;52.528;13.342;2022-12-24T09:37:34;22.98;;;8.02;;
29330;SDS011;16331;52.528;13.342;2022-12-24T09:40:01;22.80;;;8.52;;
29330;SDS011;16331;52.528;13.342;2022-12-24T09:42:30;28.77;;;9.90;;
29330;SDS011;16331;52.528;13.342;2022-12-24T09:45:23;26.38;;;9.65;;
29330;SDS011;16331;52.528;13.342;2022-12-24T09:48:19;23.40;;;9.32;;
29330;SDS011;16331;52.528;13.342;2022-12-24T09:53:56;22.02;;;7.95;;
29330;SDS011;16331;52.528;13.342;2022-12-24T09:56:37;28.73;;;9.07;;
29330;SDS011;16331;52.528;13.342;2022-12-24T09:59:06;23.95;;;8.43;;
29330;SDS011;16331;52.528;13.342;2022-12-24T10:01:37;27.25;;;9.88;;
29330;SDS011;16331;52.528;13.342;2022-12-24T10:04:09;23.10;;;9.63;;
29330;SDS011;16331;52.528;13.342;2022-12-24T10:06:44;24.23;;;9.25;;
29330;SDS011;16331;52.528;13.342;2022-12-24T10:09:40;30.45;;;9.20;;
29330;SDS011;16331;52.528;13.342;2022-12-24T10:12:32;24.98;;;9.88;;
29330;SDS011;16331;52.528;13.342;2022-12-24T10:21:03;28.40;;;9.93;;
29330;SDS011;16331;52.528;13.342;2022-12-24T10:23:39;28.90;;;10.88;;
29330;SDS011;16331;52.528;13.342;2022-12-24T10:26:44;27.38;;;9.93;;
29330;SDS011;16331;52.528;13.342;2022-12-24T10:29:26;32.85;;;9.88;;
29330;SDS011;16331;52.528;13.342;2022-12-24T10:34:34;27.83;;;10.77;;
29330;SDS011;16331;52.528;13.342;2022-12-24T10:37:15;24.63;;;10.02;;
29330;SDS011;16331;52.528;13.342;2022-12-24T10:39:46;34.22;;;9.52;;
29330;SDS011;16331;52.528;13.342;2022-12-24T10:42:24;20.20;;;7.80;;
29330;SDS011;16331;52.528;13.342;2022-12-24T10:45:04;28.27;;;9.07;;
29330;SDS011;16331;52.528;13.342;2022-12-24T10:47:35;29.20;;;10.60;;
29330;SDS011;16331;52.528;13.342;2022-12-24T10:50:09;25.65;;;8.73;;
29330;SDS011;16331;52.528;13.342;2022-12-24T10:52:46;29.10;;;10.52;;
29330;SDS011;16331;52.528;13.342;2022-12-24T10:57:45;26.55;;;9.43;;
29330;SDS011;16331;52.528;13.342;2022-12-24T11:00:21;25.73;;;8.60;;
29330;SDS011;16331;52.528;13.342;2022-12-24T11:02:49;24.05;;;8.70;;
29330;SDS011;16331;52.528;13.342;2022-12-24T11:05:32;29.00;;;10.43;;
29330;SDS011;16331;52.528;13.342;2022-12-24T11:08:05;26.45;;;9.68;;
29330;SDS011;16331;52.528;13.342;2022-12-24T11:10:39;21.92;;;8.15;;
29330;SDS011;16331;52.528;13.342;2022-12-24T11:13:21;21.77;;;8.75;;
29330;SDS011;16331;52.528;13.342;2022-12-24T11:15:58;22.13;;;8.88;;
29330;SDS011;16331;52.528;13.342;2022-12-24T11:19:04;21.02;;;8.93;;
29330;SDS011;16331;52.528;13.342;2022-12-24T11:21:40;25.35;;;8.23;;
29330;SDS011;16331;52.528;13.342;2022-12-24T11:26:38;28.77;;;9.90;;
29330;SDS011;16331;52.528;13.342;2022-12-24T11:29:20;24.90;;;8.73;;
29330;SDS011;16331;52.528;13.342;2022-12-24T11:31:50;24.80;;;8.88;;
29330;SDS011;16331;52.528;13.342;2022-12-24T11:37:14;32.50;;;10.13;;
29330;SDS011;16331;52.528;13.342;2022-12-24T11:39:45;33.13;;;10.85;;
29330;SDS011;16331;52.528;13.342;2022-12-24T11:42:33;26.40;;;10.10;;
29330;SDS011;16331;52.528;13.342;2022-12-24T11:45:03;20.48;;;8.65;;
29330;SDS011;16331;52.528;13.342;2022-12-24T11:47:39;26.95;;;9.30;;
29330;SDS011;16331;52.528;13.342;2022-12-24T11:58:02;24.73;;;8.52;;
29330;SDS011;16331;52.528;13.342;2022-12-24T12:00:47;20.85;;;8.10;;
29330;SDS011;16331;52.528;13.342;2022-12-24T12:05:51;25.50;;;8.88;;
29330;SDS011;16331;52.528;13.342;2022-12-24T12:08:19;28.92;;;9.93;;
29330;SDS011;16331;52.528;13.342;2022-12-24T12:10:46;28.90;;;10.05;;
29330;SDS011;16331;52.528;13.342;2022-12-24T12:13:23;24.20;;;9.23;;
29330;SDS011;16331;52.528;13.342;2022-12-24T12:16:02;18.48;;;7.50;;
29330;SDS011;16331;52.528;13.342;2022-12-24T12:18:37;14.38;;;6.07;;
29330;SDS011;16331;52.528;13.342;2022-12-24T12:21:07;21.45;;;7.45;;
29330;SDS011;16331;52.528;13.342;2022-12-24T12:23:43;13.75;;;6.07;;
29330;SDS011;16331;52.528;13.342;2022-12-24T12:26:21;14.82;;;6.65;;
29330;SDS011;16331;52.528;13.342;2022-12-24T12:29:15;16.92;;;6.57;;
29330;SDS011;16331;52.528;13.342;2022-12-24T12:31:54;18.90;;;6.70;;
29330;SDS011;16331;52.528;13.342;2022-12-24T12:34:36;17.40;;;5.82;;
29330;SDS011;16331;52.528;13.342;2022-12-24T12:37:17;19.42;;;6.25;;
29330;SDS011;16331;52.528;13.342;2022-12-24T12:40:13;15.75;;;7.57;;
29330;SDS011;16331;52.528;13.342;2022-12-24T12:42:42;15.85;;;6.57;;
29330;SDS011;16331;52.528;13.342;2022-12-24T12:45:23;15.23;;;5.25;;
29330;SDS011;16331;52.528;13.342;2022-12-24T12:48:07;13.15;;;5.63;;
29330;SDS011;16331;52.528;13.342;2022-12-24T12:50:39;14.27;;;5.90;;
29330;SDS011;16331;52.528;13.342;2022-12-24T12:53:17;12.55;;;5.18;;
29330;SDS011;16331;52.528;13.342;2022-12-24T12:58:30;18.00;;;6.88;;
29330;SDS011;16331;52.528;13.342;2022-12-24T13:01:07;23.23;;;8.00;;
29330;SDS011;16331;52.528;13.342;2022-12-24T13:03:52;15.50;;;5.78;;
29330;SDS011;16331;52.528;13.342;2022-12-24T13:12:40;23.73;;;5.22;;
29330;SDS011;16331;52.528;13.342;2022-12-24T13:18:24;10.05;;;4.53;;
29330;SDS011;16331;52.528;13.342;2022-12-24T13:21:03;14.20;;;4.67;;
29330;SDS011;16331;52.528;13.342;2022-12-24T13:23:39;9.75;;;4.78;;
29330;SDS011;16331;52.528;13.342;2022-12-24T13:26:09;8.82;;;4.05;;
29330;SDS011;16331;52.528;13.342;2022-12-24T13:28:37;15.10;;;5.20;;
29330;SDS011;16331;52.528;13.342;2022-12-24T13:36:13;13.63;;;3.70;;
29330;SDS011;16331;52.528;13.342;2022-12-24T13:38:41;21.88;;;5.00;;
29330;SDS011;16331;52.528;13.342;2022-12-24T13:49:28;21.10;;;5.47;;
29330;SDS011;16331;52.528;13.342;2022-12-24T13:54:36;16.38;;;5.45;;
29330;SDS011;16331;52.528;13.342;2022-12-24T13:57:23;15.68;;;4.25;;
29330;SDS011;16331;52.528;13.342;2022-12-24T14:00:02;13.23;;;4.55;;
29330;SDS011;16331;52.528;13.342;2022-12-24T14:02:34;17.00;;;3.87;;
29330;SDS011;16331;52.528;13.342;2022-12-24T14:05:15;14.27;;;3.85;;
29330;SDS011;16331;52.528;13.342;2022-12-24T14:07:51;13.98;;;3.58;;
29330;SDS011;16331;52.528;13.342;2022-12-24T14:10:22;22.58;;;3.78;;
29330;SDS011;16331;52.528;13.342;2022-12-24T14:12:52;12.25;;;4.57;;
29330;SDS011;16331;52.528;13.342;2022-12-24T14:18:20;16.02;;;4.63;;
29330;SDS011;16331;52.528;13.342;2022-12-24T14:20:50;18.35;;;4.65;;
29330;SDS011;16331;52.528;13.342;2022-12-24T14:26:13;17.92;;;4.15;;
29330;SDS011;16331;52.528;13.342;2022-12-24T14:29:02;18.73;;;4.60;;
29330;SDS011;16331;52.528;13.342;2022-12-24T14:31:53;27.05;;;4.85;;
29330;SDS011;16331;52.528;13.342;2022-12-24T14:34:20;24.83;;;5.28;;
29330;SDS011;16331;52.528;13.342;2022-12-24T14:36:47;20.65;;;4.38;;
29330;SDS011;16331;52.528;13.342;2022-12-24T14:39:27;18.13;;;4.20;;
29330;SDS011;16331;52.528;13.342;2022-12-24T14:47:40;26.10;;;4.45;;
29330;SDS011;16331;52.528;13.342;2022-12-24T14:50:29;30.02;;;4.05;;
29330;SDS011;16331;52.528;13.342;2022-12-24T14:55:52;16.90;;;5.25;;
29330;SDS011;16331;52.528;13.342;2022-12-24T15:00:58;13.23;;;3.83;;
29330;SDS011;16331;52.528;13.342;2022-12-24T15:03:27;15.60;;;4.10;;
29330;SDS011;16331;52.528;13.342;2022-12-24T15:05:56;33.22;;;5.18;;
29330;SDS011;16331;52.528;13.342;2022-12-24T15:08:27;22.73;;;4.80;;
29330;SDS011;16331;52.528;13.342;2022-12-24T15:11:04;21.42;;;5.00;;
29330;SDS011;16331;52.528;13.342;2022-12-24T15:13:51;17.63;;;4.22;;
29330;SDS011;16331;52.528;13.342;2022-12-24T15:16:30;22.55;;;6.40;;
29330;SDS011;16331;52.528;13.342;2022-12-24T15:19:02;22.45;;;5.28;;
29330;SDS011;16331;52.528;13.342;2022-12-24T15:21:38;18.77;;;5.38;;
29330;SDS011;16331;52.528;13.342;2022-12-24T15:24:22;17.55;;;4.60;;
29330;SDS011;16331;52.528;13.342;2022-12-24T15:29:20;29.35;;;5.18;;
29330;SDS011;16331;52.528;13.342;2022-12-24T15:31:52;18.17;;;5.18;;
29330;SDS011;16331;52.528;13.342;2022-12-24T15:34:26;18.20;;;5.35;;
29330;SDS011;16331;52.528;13.342;2022-12-24T15:37:00;33.17;;;6.90;;
29330;SDS011;16331;52.528;13.342;2022-12-24T15:42:25;25.70;;;6.07;;
29330;SDS011;16331;52.528;13.342;2022-12-24T15:47:31;14.02;;;4.88;;
29330;SDS011;16331;52.528;13.342;2022-12-24T15:50:04;13.50;;;5.20;;
29330;SDS011;16331;52.528;13.342;2022-12-24T15:52:40;23.70;;;5.45;;
29330;SDS011;16331;52.528;13.342;2022-12-24T15:57:54;19.85;;;5.78;;
29330;SDS011;16331;52.528;13.342;2022-12-24T16:00:22;30.15;;;6.22;;
29330;SDS011;16331;52.528;13.342;2022-12-24T16:02:51;25.08;;;5.28;;
29330;SDS011;16331;52.528;13.342;2022-12-24T16:05:22;26.23;;;4.88;;
29330;SDS011;16331;52.528;13.342;2022-12-24T16:10:43;25.30;;;4.68;;
29330;SDS011;16331;52.528;13.342;2022-12-24T16:13:11;17.75;;;5.32;;
29330;SDS011;16331;52.528;13.342;2022-12-24T16:15:45;31.08;;;5.50;;
29330;SDS011;16331;52.528;13.342;2022-12-24T16:18:30;26.92;;;5.95;;
29330;SDS011;16331;52.528;13.342;2022-12-24T16:21:24;25.17;;;5.65;;
29330;SDS011;16331;52.528;13.342;2022-12-24T16:24:03;23.85;;;6.38;;
29330;SDS011;16331;52.528;13.342;2022-12-24T16:26:42;38.92;;;7.75;;